createdAt,value
2023-03-03T00:01:52.239Z,22.60
2023-03-03T00:04:19.356Z,23.00
2023-03-03T00:06:47.599Z,22.90
2023-03-03T00:09:14.770Z,22.00
2023-03-03T00:11:41.832Z,21.90
2023-03-03T00:14:33.339Z,21.80
2023-03-03T00:17:18.362Z,21.80
2023-03-03T00:19:47.549Z,22.50
2023-03-03T00:22:23.741Z,22.80
2023-03-03T00:24:51.259Z,23.20
2023-03-03T00:27:34.745Z,24.50
2023-03-03T00:30:02.303Z,24.00
2023-03-03T00:32:43.938Z,23.20
2023-03-03T00:35:35.664Z,22.50
2023-03-03T00:38:14.486Z,22.50
2023-03-03T00:40:42.141Z,23.10
2023-03-03T00:43:24.175Z,22.70
2023-03-03T00:45:53.341Z,22.60
2023-03-03T00:48:42.092Z,22.20
2023-03-03T00:51:30.773Z,21.70
2023-03-03T00:53:59.638Z,21.40
2023-03-03T00:56:27.831Z,21.60
2023-03-03T00:58:54.945Z,22.60
2023-03-03T01:01:22.440Z,22.90
2023-03-03T01:03:49.494Z,23.20
2023-03-03T01:06:17.158Z,23.10
2023-03-03T01:08:44.314Z,23.20
2023-03-03T01:11:19.987Z,23.30
2023-03-03T01:13:50.370Z,22.40
2023-03-03T01:16:17.807Z,21.70
2023-03-03T01:18:45.281Z,21.30
2023-03-03T01:21:12.534Z,21.30
2023-03-03T01:23:40.059Z,21.20
2023-03-03T01:26:07.502Z,21.20
2023-03-03T01:28:35.219Z,20.90
2023-03-03T01:31:04.227Z,20.80
2023-03-03T01:33:32.537Z,20.80
2023-03-03T01:35:59.650Z,20.90
2023-03-03T01:38:26.840Z,21.30
2023-03-03T01:40:58.379Z,21.80
2023-03-03T01:43:31.241Z,22.00
2023-03-03T01:45:58.192Z,22.00
2023-03-03T01:48:41.792Z,21.80
2023-03-03T01:51:29.327Z,21.70
2023-03-03T01:54:06.190Z,22.10
2023-03-03T01:56:33.575Z,22.10
2023-03-03T01:59:31.792Z,22.10
2023-03-03T02:01:58.888Z,22.70
2023-03-03T02:04:27.395Z,22.10
2023-03-03T02:07:10.984Z,22.40
2023-03-03T02:09:51.870Z,22.60
2023-03-03T02:12:21.191Z,22.80
2023-03-03T02:14:48.350Z,22.40
2023-03-03T02:17:15.395Z,22.20
2023-03-03T02:20:00.201Z,22.00
2023-03-03T02:22:55.509Z,22.10
2023-03-03T02:25:50.139Z,23.30
2023-03-03T02:28:17.383Z,23.50
2023-03-03T02:30:44.688Z,23.60
2023-03-03T02:33:12.012Z,23.50
2023-03-03T02:35:41.351Z,23.80
2023-03-03T02:38:12.597Z,23.90
2023-03-03T02:40:45.901Z,23.60
2023-03-03T02:43:14.527Z,23.90
2023-03-03T02:45:45.926Z,24.50
2023-03-03T02:48:13.193Z,24.30
2023-03-03T02:50:40.340Z,24.00
2023-03-03T02:53:07.461Z,23.60
2023-03-03T02:55:34.703Z,22.80
2023-03-03T02:58:01.843Z,22.90
2023-03-03T03:00:29.067Z,22.60
2023-03-03T03:02:56.297Z,22.90
2023-03-03T03:05:23.427Z,23.70
2023-03-03T03:07:50.530Z,24.00
2023-03-03T03:10:17.596Z,24.20
2023-03-03T03:12:44.655Z,24.10
2023-03-03T03:15:11.856Z,23.40
2023-03-03T03:17:39.500Z,23.10
2023-03-03T03:20:06.960Z,23.00
2023-03-03T03:22:34.390Z,22.60
2023-03-03T03:25:01.571Z,22.60
2023-03-03T03:27:28.658Z,22.10
2023-03-03T03:29:55.828Z,21.80
2023-03-03T03:32:22.923Z,21.40
2023-03-03T03:34:50.167Z,21.30
2023-03-03T03:37:17.368Z,21.30
2023-03-03T03:39:44.480Z,21.30
2023-03-03T03:42:11.781Z,21.70
2023-03-03T03:44:38.930Z,21.70
2023-03-03T03:47:06.254Z,21.90
2023-03-03T03:49:33.361Z,22.40
2023-03-03T03:52:00.392Z,22.50
2023-03-03T03:54:27.478Z,22.90
2023-03-03T03:56:55.275Z,23.00
2023-03-03T03:59:22.859Z,22.70
2023-03-03T04:01:50.225Z,22.50
2023-03-03T04:04:18.046Z,21.90
2023-03-03T04:06:45.112Z,22.50
2023-03-03T04:09:12.391Z,23.10
2023-03-03T04:11:39.506Z,22.80
2023-03-03T04:14:06.649Z,22.90
2023-03-03T04:16:33.918Z,23.10
2023-03-03T04:19:01.027Z,23.10
2023-03-03T04:21:28.197Z,23.20
2023-03-03T04:23:55.284Z,22.70
2023-03-03T04:26:23.186Z,22.40
2023-03-03T04:28:50.473Z,22.50
2023-03-03T04:31:17.728Z,23.00
2023-03-03T04:33:44.753Z,23.80
2023-03-03T04:36:12.152Z,23.80
2023-03-03T04:38:39.276Z,24.40
2023-03-03T04:41:06.330Z,23.60
2023-03-03T04:43:33.406Z,23.60
2023-03-03T04:46:00.513Z,23.40
2023-03-03T04:48:27.876Z,23.70
2023-03-03T04:50:54.918Z,23.70
2023-03-03T04:53:23.425Z,23.60
2023-03-03T04:55:52.089Z,24.00
2023-03-03T04:58:19.462Z,23.70
2023-03-03T05:00:57.617Z,24.40
2023-03-03T05:03:25.276Z,24.20
2023-03-03T05:05:52.338Z,24.00
2023-03-03T05:08:19.655Z,23.80
2023-03-03T05:10:46.705Z,23.60
2023-03-03T05:13:15.475Z,23.80
2023-03-03T05:15:43.348Z,24.10
2023-03-03T05:18:11.767Z,24.00
2023-03-03T05:20:40.974Z,23.60
2023-03-03T05:23:08.125Z,23.20
2023-03-03T05:25:35.432Z,23.10
2023-03-03T05:28:02.599Z,23.20
2023-03-03T05:30:29.700Z,23.20
2023-03-03T05:32:56.911Z,23.70
2023-03-03T05:35:23.969Z,24.60
2023-03-03T05:37:51.202Z,24.10
2023-03-03T05:40:18.942Z,23.10
2023-03-03T05:42:46.225Z,22.70
2023-03-03T05:45:13.917Z,22.90
2023-03-03T05:47:41.241Z,23.80
2023-03-03T05:50:08.892Z,23.70
2023-03-03T05:52:36.002Z,23.60
2023-03-03T05:55:03.276Z,23.70
2023-03-03T05:57:30.459Z,23.80
2023-03-03T05:59:57.777Z,24.50
2023-03-03T06:02:24.825Z,24.50
2023-03-03T06:04:51.971Z,24.20
2023-03-03T06:07:19.145Z,24.30
2023-03-03T06:09:46.184Z,24.10
2023-03-03T06:12:13.249Z,23.60
2023-03-03T06:14:40.425Z,23.90
2023-03-03T06:17:07.533Z,24.70
2023-03-03T06:19:34.554Z,24.90
2023-03-03T06:22:01.646Z,24.80
2023-03-03T06:24:30.494Z,24.20
2023-03-03T06:26:58.696Z,23.50
2023-03-03T06:29:26.259Z,23.70
2023-03-03T06:31:53.467Z,24.40
2023-03-03T06:34:20.929Z,24.60
2023-03-03T06:36:48.067Z,24.80
2023-03-03T06:39:15.246Z,24.80
2023-03-03T06:41:42.564Z,24.50
2023-03-03T06:44:09.731Z,24.00
2023-03-03T06:46:36.778Z,24.70
2023-03-03T06:49:04.217Z,25.20
2023-03-03T06:51:38.521Z,24.50
2023-03-03T06:54:17.531Z,24.00
2023-03-03T06:56:45.917Z,24.50
2023-03-03T06:59:21.247Z,24.90
2023-03-03T07:01:51.420Z,25.00
2023-03-03T07:04:33.859Z,25.20
2023-03-03T07:07:11.243Z,24.80
2023-03-03T07:09:38.284Z,24.90
2023-03-03T07:12:15.429Z,24.80
2023-03-03T07:15:16.090Z,25.40
2023-03-03T07:17:49.087Z,25.30
2023-03-03T07:20:23.863Z,25.30
2023-03-03T07:22:52.287Z,25.50
2023-03-03T07:25:27.470Z,25.40
2023-03-03T07:28:00.470Z,24.80
2023-03-03T07:30:29.734Z,24.80
2023-03-03T07:32:58.900Z,25.90
2023-03-03T07:35:44.813Z,26.40
2023-03-03T07:38:23.372Z,26.40
2023-03-03T07:40:55.892Z,26.10
2023-03-03T07:43:36.670Z,25.60
2023-03-03T07:46:37.074Z,26.50
2023-03-03T07:49:18.002Z,26.40
2023-03-03T07:51:45.130Z,26.20
2023-03-03T07:54:40.581Z,25.70
2023-03-03T07:57:10.485Z,25.30
2023-03-03T07:59:41.864Z,25.50
2023-03-03T08:02:28.152Z,25.30
2023-03-03T08:04:55.437Z,25.60
2023-03-03T08:07:23.656Z,25.20
2023-03-03T08:09:57.111Z,26.10
2023-03-03T08:12:42.317Z,26.00
2023-03-03T08:15:20.009Z,25.40
2023-03-03T08:17:48.869Z,25.30
2023-03-03T08:20:34.824Z,25.60
2023-03-03T08:23:01.973Z,25.80
2023-03-03T08:25:29.636Z,26.60
2023-03-03T08:27:56.717Z,26.40
2023-03-03T08:30:23.794Z,25.80
2023-03-03T08:32:50.860Z,26.30
2023-03-03T08:35:17.987Z,25.70
2023-03-03T08:37:45.032Z,25.40
2023-03-03T08:40:12.430Z,25.80
2023-03-03T08:42:39.836Z,25.70
2023-03-03T08:45:07.275Z,26.20
2023-03-03T08:47:34.457Z,25.50
2023-03-03T08:50:01.806Z,25.10
2023-03-03T08:52:28.927Z,24.60
2023-03-03T08:54:59.001Z,25.10
2023-03-03T08:57:26.276Z,25.90
2023-03-03T08:59:53.396Z,25.60
2023-03-03T09:02:20.543Z,25.50
2023-03-03T09:04:47.708Z,25.00
2023-03-03T09:07:14.901Z,24.90
2023-03-03T09:09:41.912Z,25.20
2023-03-03T09:12:23.227Z,25.10
2023-03-03T09:14:51.838Z,25.40
2023-03-03T09:17:34.240Z,26.00
2023-03-03T09:20:21.150Z,25.70
2023-03-03T09:22:48.447Z,25.10
2023-03-03T09:25:36.622Z,25.30
2023-03-03T09:28:04.455Z,25.70
2023-03-03T09:30:40.222Z,26.30
2023-03-03T09:33:28.987Z,26.20
2023-03-03T09:36:06.567Z,26.10
2023-03-03T09:38:40.154Z,25.70
2023-03-03T09:41:40.623Z,25.20
2023-03-03T09:44:26.037Z,26.00
2023-03-03T09:47:23.934Z,25.80
2023-03-03T09:50:02.904Z,25.70
2023-03-03T09:52:48.799Z,25.50
2023-03-03T09:55:32.328Z,25.20
2023-03-03T09:58:20.467Z,26.00
2023-03-03T10:00:52.979Z,25.40
2023-03-03T10:03:41.553Z,25.50
2023-03-03T10:06:30.706Z,25.50
2023-03-03T10:09:29.785Z,24.80
2023-03-03T10:12:22.659Z,24.50
2023-03-03T10:15:04.831Z,24.80
2023-03-03T10:17:54.027Z,25.10
2023-03-03T10:20:51.279Z,25.20
2023-03-03T10:23:21.266Z,24.80
2023-03-03T10:26:02.096Z,24.80
2023-03-03T10:28:55.431Z,24.20
2023-03-03T10:31:28.897Z,25.20
2023-03-03T10:34:17.348Z,25.30
2023-03-03T10:37:10.416Z,25.60
2023-03-03T10:40:06.156Z,25.10
2023-03-03T10:42:35.940Z,25.40
2023-03-03T10:45:20.815Z,24.80
2023-03-03T10:48:09.741Z,24.60
2023-03-03T10:51:09.105Z,24.70
2023-03-03T10:54:10.385Z,24.40
2023-03-03T10:56:52.918Z,24.80
2023-03-03T10:59:31.941Z,25.10
2023-03-03T11:02:03.170Z,24.90
2023-03-03T11:04:45.879Z,24.50
2023-03-03T11:07:22.603Z,24.40
2023-03-03T11:10:29.003Z,24.40
2023-03-03T11:13:13.663Z,24.40
2023-03-03T11:16:04.515Z,25.30
2023-03-03T11:18:51.208Z,25.10
2023-03-03T11:21:40.654Z,24.50
2023-03-03T11:24:37.793Z,24.80
2023-03-03T11:27:13.690Z,24.70
2023-03-03T11:30:08.174Z,24.70
2023-03-03T11:32:43.859Z,24.10
2023-03-03T11:35:20.524Z,23.80
2023-03-03T11:38:08.949Z,23.10
2023-03-03T11:41:25.703Z,23.80
2023-03-03T11:43:57.976Z,23.50
2023-03-03T11:46:52.144Z,23.70
2023-03-03T11:49:25.780Z,22.30
2023-03-03T11:52:02.035Z,22.10
2023-03-03T11:54:50.393Z,21.40
2023-03-03T11:57:36.085Z,21.00
2023-03-03T12:00:20.929Z,20.50
2023-03-03T12:03:18.053Z,20.30
2023-03-03T12:06:12.487Z,20.00
2023-03-03T12:09:10.348Z,20.30
2023-03-03T12:11:54.169Z,20.50
2023-03-03T12:14:40.105Z,21.00
2023-03-03T12:17:29.266Z,21.10
2023-03-03T12:20:08.193Z,20.60
2023-03-03T12:23:06.438Z,20.80
2023-03-03T12:25:41.396Z,20.60
2023-03-03T12:28:15.979Z,20.20
2023-03-03T12:31:09.176Z,19.90
2023-03-03T12:33:54.016Z,19.50
2023-03-03T12:36:35.885Z,19.50
2023-03-03T12:39:02.906Z,19.50
2023-03-03T12:41:48.384Z,19.50
2023-03-03T12:44:27.649Z,19.40
2023-03-03T12:46:57.646Z,19.60
2023-03-03T12:49:44.073Z,20.50
2023-03-03T12:52:30.872Z,21.00
2023-03-03T12:55:36.890Z,21.00
2023-03-03T12:58:39.866Z,21.70
2023-03-03T13:02:07.202Z,22.00
2023-03-03T13:04:56.900Z,22.10
2023-03-03T13:07:46.289Z,22.30
2023-03-03T13:10:24.279Z,22.50
2023-03-03T13:13:25.120Z,22.50
2023-03-03T13:16:22.216Z,22.60
2023-03-03T13:19:15.961Z,23.30
2023-03-03T13:21:56.942Z,23.70
2023-03-03T13:24:35.909Z,23.50
2023-03-03T13:27:13.381Z,23.90
2023-03-03T13:29:50.758Z,24.20
2023-03-03T13:32:24.916Z,24.00
2023-03-03T13:35:09.286Z,23.90
2023-03-03T13:37:43.504Z,24.10
2023-03-03T13:40:17.922Z,24.30
2023-03-03T13:42:50.841Z,24.10
2023-03-03T13:45:18.100Z,23.90
2023-03-03T13:48:07.756Z,24.20
2023-03-03T13:50:45.689Z,23.70
2023-03-03T13:53:24.700Z,23.60
2023-03-03T13:56:03.086Z,23.50
2023-03-03T13:58:53.536Z,23.40
2023-03-03T14:01:43.541Z,23.40
2023-03-03T14:04:15.708Z,23.90
2023-03-03T14:06:54.458Z,23.50
2023-03-03T14:10:09.486Z,23.60
2023-03-03T14:13:11.901Z,23.60
2023-03-03T14:16:13.558Z,23.40
2023-03-03T14:18:55.076Z,23.40
2023-03-03T14:21:41.009Z,23.30
2023-03-03T14:24:18.263Z,24.20
2023-03-03T14:26:57.050Z,24.10
2023-03-03T14:29:27.300Z,24.20
2023-03-03T14:31:55.824Z,25.10
2023-03-03T14:34:36.768Z,25.50
2023-03-03T14:37:25.711Z,25.30
2023-03-03T14:40:22.039Z,25.30
2023-03-03T14:42:52.193Z,25.40
2023-03-03T14:45:37.822Z,25.50
2023-03-03T14:48:26.364Z,24.80
2023-03-03T14:51:04.698Z,24.80
2023-03-03T14:53:38.364Z,25.30
2023-03-03T14:56:25.238Z,25.50
2023-03-03T14:58:54.993Z,25.20
2023-03-03T15:01:37.765Z,25.70
2023-03-03T15:04:15.678Z,25.70
2023-03-03T15:06:51.569Z,25.60
2023-03-03T15:09:45.634Z,25.10
2023-03-03T15:12:26.693Z,25.10
2023-03-03T15:15:05.976Z,25.50
2023-03-03T15:17:58.165Z,25.40
2023-03-03T15:20:45.477Z,25.20
2023-03-03T15:23:35.887Z,25.40
2023-03-03T15:26:11.012Z,25.20
2023-03-03T15:29:02.307Z,25.60
2023-03-03T15:31:39.148Z,26.00
2023-03-03T15:34:25.248Z,25.80
2023-03-03T15:36:58.882Z,25.00
2023-03-03T15:39:34.287Z,25.40
2023-03-03T15:42:11.987Z,25.60
2023-03-03T15:44:48.289Z,26.20
2023-03-03T15:47:53.959Z,27.20
2023-03-03T15:50:39.109Z,26.70
2023-03-03T15:54:02.223Z,26.60
2023-03-03T15:56:51.402Z,26.70
2023-03-03T15:59:51.096Z,26.00
2023-03-03T16:02:23.827Z,25.60
2023-03-03T16:05:03.386Z,26.30
2023-03-03T16:07:36.388Z,25.90
2023-03-03T16:11:03.292Z,25.60
2023-03-03T16:13:48.752Z,25.80
2023-03-03T16:16:31.181Z,25.90
2023-03-03T16:19:23.173Z,26.10
2023-03-03T16:22:01.254Z,25.40
2023-03-03T16:24:41.195Z,25.30
2023-03-03T16:27:38.560Z,25.50
2023-03-03T16:30:20.615Z,25.90
2023-03-03T16:33:11.324Z,26.50
2023-03-03T16:36:23.431Z,26.20
2023-03-03T16:39:13.033Z,26.20
2023-03-03T16:41:55.091Z,26.40
2023-03-03T16:44:22.355Z,25.60
2023-03-03T16:49:43.617Z,25.60
2023-03-03T16:52:24.857Z,25.40
2023-03-03T16:55:04.070Z,25.40
2023-03-03T16:57:56.261Z,25.20
2023-03-03T17:00:29.966Z,24.90
2023-03-03T17:03:25.650Z,25.00
2023-03-03T17:06:06.352Z,25.70
2023-03-03T17:08:56.530Z,26.20
2023-03-03T17:11:46.079Z,25.60
2023-03-03T17:14:34.835Z,25.80
2023-03-03T17:17:18.862Z,25.50
2023-03-03T17:20:07.255Z,25.50
2023-03-03T17:22:43.233Z,25.60
2023-03-03T17:25:36.705Z,25.90
2023-03-03T17:28:27.737Z,26.20
2023-03-03T17:31:12.648Z,26.80
2023-03-03T17:34:00.984Z,27.80
2023-03-03T17:36:57.237Z,27.50
2023-03-03T17:39:57.601Z,26.80
2023-03-03T17:42:45.607Z,27.20
2023-03-03T17:45:15.872Z,28.10
2023-03-03T17:48:11.090Z,28.90
2023-03-03T17:51:13.275Z,28.30
2023-03-03T17:53:49.411Z,28.40
2023-03-03T17:56:29.686Z,28.70
2023-03-03T17:59:32.934Z,29.70
2023-03-03T18:02:38.630Z,28.70
2023-03-03T18:05:28.976Z,28.20
2023-03-03T18:08:06.666Z,27.40
2023-03-03T18:10:45.455Z,27.90
2023-03-03T18:13:35.055Z,28.40
2023-03-03T18:16:11.766Z,28.40
2023-03-03T18:19:00.163Z,28.50
2023-03-03T18:21:47.917Z,28.80
2023-03-03T18:24:56.749Z,28.30
2023-03-03T18:27:35.570Z,28.90
2023-03-03T18:30:09.122Z,29.30
2023-03-03T18:32:48.179Z,27.80
2023-03-03T18:35:45.274Z,25.80
2023-03-03T18:38:18.984Z,24.80
2023-03-03T18:40:53.260Z,24.80
2023-03-03T18:43:44.991Z,25.10
2023-03-03T18:46:21.572Z,25.00
2023-03-03T18:49:10.956Z,25.70
2023-03-03T18:51:41.000Z,25.90
2023-03-03T18:54:14.288Z,25.10
2023-03-03T18:56:53.362Z,25.80
2023-03-03T18:59:36.088Z,26.90
2023-03-03T19:02:46.647Z,27.10
2023-03-03T19:05:46.552Z,27.00
2023-03-03T19:08:28.551Z,26.90
2023-03-03T19:10:56.875Z,27.60
2023-03-03T19:13:33.166Z,27.50
2023-03-03T19:16:04.252Z,27.80
2023-03-03T19:18:55.692Z,28.30
2023-03-03T19:21:28.197Z,28.10
2023-03-03T19:24:01.461Z,27.30
2023-03-03T19:26:31.059Z,28.20
2023-03-03T19:29:16.956Z,28.10
2023-03-03T19:32:31.485Z,28.40
2023-03-03T19:35:56.726Z,29.60
2023-03-03T19:38:34.747Z,29.80
2023-03-03T19:41:18.299Z,29.30
2023-03-03T19:44:00.236Z,29.20
2023-03-03T19:46:52.844Z,29.80
2023-03-03T19:49:28.748Z,28.60
2023-03-03T19:52:22.276Z,28.00
2023-03-03T19:55:28.322Z,28.80
2023-03-03T19:58:19.595Z,29.30
2023-03-03T20:00:46.486Z,28.50
2023-03-03T20:03:34.253Z,28.00
2023-03-03T20:06:07.158Z,28.10
2023-03-03T20:08:51.170Z,27.70
2023-03-03T20:11:36.744Z,28.20
2023-03-03T20:14:21.055Z,29.70
2023-03-03T20:16:50.414Z,29.20
2023-03-03T20:19:52.935Z,27.80
2023-03-03T20:22:31.741Z,28.60
2023-03-03T20:25:15.723Z,28.80
2023-03-03T20:28:18.350Z,28.50
2023-03-03T20:31:09.502Z,29.10
2023-03-03T20:33:55.166Z,29.40
2023-03-03T20:36:40.876Z,29.00
2023-03-03T20:39:38.394Z,29.00
2023-03-03T20:42:11.240Z,28.70
2023-03-03T20:45:03.920Z,28.50
2023-03-03T20:48:12.263Z,27.50
2023-03-03T20:50:56.929Z,28.30
2023-03-03T20:53:45.328Z,28.50
2023-03-03T20:56:34.097Z,28.50
2023-03-03T20:59:04.292Z,28.40
2023-03-03T21:01:53.552Z,28.40
2023-03-03T21:04:32.256Z,28.10
2023-03-03T21:07:01.733Z,27.50
2023-03-03T21:09:33.426Z,27.50
2023-03-03T21:12:02.683Z,27.20
2023-03-03T21:14:33.819Z,27.30
2023-03-03T21:17:02.933Z,27.20
2023-03-03T21:19:32.892Z,27.20
2023-03-03T21:22:02.376Z,27.00
2023-03-03T21:24:56.025Z,26.70
2023-03-03T21:27:34.657Z,28.10
2023-03-03T21:30:11.041Z,28.00
2023-03-03T21:32:44.821Z,28.00
2023-03-03T21:35:18.102Z,27.80
2023-03-03T21:37:50.087Z,27.50
2023-03-03T21:40:25.940Z,27.00
2023-03-03T21:42:55.322Z,27.40
2023-03-03T21:45:24.018Z,27.40
2023-03-03T21:47:52.502Z,28.00
2023-03-03T21:50:21.457Z,28.80
2023-03-03T21:52:49.086Z,29.60
2023-03-03T21:55:16.650Z,29.00
2023-03-03T21:57:43.685Z,28.70
2023-03-03T22:00:11.485Z,28.40
2023-03-03T22:02:38.610Z,28.90
2023-03-03T22:05:07.677Z,30.00
2023-03-03T22:07:34.854Z,29.30
2023-03-03T22:10:03.118Z,29.00
2023-03-03T22:12:30.355Z,28.80
2023-03-03T22:14:57.409Z,28.60
2023-03-03T22:17:25.603Z,29.20
2023-03-03T22:19:53.178Z,30.00
2023-03-03T22:22:20.179Z,30.10
2023-03-03T22:24:47.294Z,30.00
2023-03-03T22:27:14.642Z,29.70
2023-03-03T22:29:41.658Z,29.20
2023-03-03T22:32:08.790Z,28.80
2023-03-03T22:34:36.245Z,29.20
2023-03-03T22:37:03.284Z,29.60
2023-03-03T22:39:30.455Z,29.60
2023-03-03T22:41:57.487Z,29.60
2023-03-03T22:44:24.588Z,28.10
2023-03-03T22:46:51.582Z,27.30
2023-03-03T22:49:18.669Z,27.50
2023-03-03T22:51:45.806Z,27.90
2023-03-03T22:54:12.930Z,27.20
2023-03-03T22:56:39.992Z,27.60
2023-03-03T22:59:07.047Z,27.80
2023-03-03T23:01:34.065Z,28.10
2023-03-03T23:04:01.541Z,27.70
2023-03-03T23:06:28.711Z,27.10
2023-03-03T23:08:55.726Z,27.80
2023-03-03T23:11:24.740Z,27.90
2023-03-03T23:13:51.913Z,28.10
2023-03-03T23:16:19.169Z,28.30
2023-03-03T23:18:46.461Z,28.00
2023-03-03T23:21:13.832Z,27.20
2023-03-03T23:23:40.880Z,28.20
2023-03-03T23:26:07.936Z,28.40
2023-03-03T23:28:35.658Z,27.50
2023-03-03T23:31:02.770Z,27.40
2023-03-03T23:33:29.781Z,28.10
2023-03-03T23:35:56.932Z,27.80
2023-03-03T23:38:24.083Z,27.20
2023-03-03T23:40:51.074Z,27.30
2023-03-03T23:43:18.741Z,27.50
2023-03-03T23:45:45.888Z,26.70
2023-03-03T23:48:13.008Z,27.50
2023-03-03T23:50:40.269Z,27.50
2023-03-03T23:53:08.194Z,28.20
2023-03-03T23:55:36.389Z,27.90
2023-03-03T23:58:03.920Z,27.10
